Weather reports worldwide

Advertisment
Manchester/Intl, United Kingdom (3334): temperature & dewpoint: 26.06.2020 07:00:00 - 02.07.2020 07:00:00 (BST)Manchester/Intl, United Kingdom (3334): wind speed: 26.06.2020 07:00:00 - 02.07.2020 07:00:00 (BST)Manchester/Intl, United Kingdom (3334): wind direction: 26.06.2020 07:00:00 - 02.07.2020 07:00:00 (BST)Manchester/Intl, United Kingdom (3334): visibility: 26.06.2020 07:00:00 - 02.07.2020 07:00:00 (BST)
Date & Time tt [°C] td [°C] ff [km/h] ff [kn] dd vv [km]
02.07.2020 07:00:00 13,0 12,0 4 2 - 4,6
02.07.2020 06:00:00 13,0 12,0 5 3 - 10
02.07.2020 05:00:00 13,0 12,0 5 3 - 10
02.07.2020 04:00:00 13,0 12,0 8 4 SSW 10
02.07.2020 03:00:00 13,0 13,0 5 3 S 10
02.07.2020 02:00:00 13,0 13,0 2 1 - 6
02.07.2020 01:00:00 13,0 13,0 8 4 WSW 1,7
02.07.2020 00:00:00 13,0 13,0 2 1 - 4,5
01.07.2020 23:00:00 13,0 13,0 2 1 - 5
01.07.2020 22:00:00 14,0 13,0 5 3 WSW 3,9
01.07.2020 21:00:00 15,0 12,0 5 3 W 10
01.07.2020 20:00:00 15,0 14,0 5 3 - 10
01.07.2020 19:00:00 17,0 11,0 13 7 W 10
01.07.2020 18:00:00 18,0 11,0 13 7 W 10
01.07.2020 17:00:00 18,0 12,0 15 8 W 10
01.07.2020 16:00:00 18,0 11,0 9 5 WSW 10
01.07.2020 15:00:00 19,0 12,0 11 6 W 10
01.07.2020 14:00:00 17,0 12,0 11 6 W 10
01.07.2020 13:00:00 16,0 14,0 5 3 - 10
01.07.2020 12:00:00 15,0 13,0 16 9 WNW 5
01.07.2020 11:00:00 16,0 13,0 5 3 - 10
01.07.2020 10:00:00 14,0 13,0 5 3 W 10
01.07.2020 09:00:00 14,0 13,0 5 3 - 10
01.07.2020 08:00:00 13,0 13,0 9 5 SW 10
01.07.2020 07:00:00 13,0 13,0 5 3 - 10
01.07.2020 06:00:00 13,0 13,0 5 3 - 10
01.07.2020 05:00:00 13,0 13,0 8 4 S 10
01.07.2020 04:00:00 13,0 13,0 4 2 - 6
01.07.2020 03:00:00 13,0 13,0 4 2 - 5
01.07.2020 02:00:00 13,0 12,0 8 4 SW 6
01.07.2020 01:00:00 - - - - - -
01.07.2020 00:00:00 14,0 12,0 2 1 - 10
30.06.2020 23:00:00 14,0 13,0 2 1 - 10
30.06.2020 22:00:00 15,0 12,0 2 1 - 10
30.06.2020 21:00:00 16,0 12,0 4 2 - 10
30.06.2020 20:00:00 16,0 12,0 4 2 - 10
30.06.2020 19:00:00 17,0 10,0 8 4 SSW 10
30.06.2020 18:00:00 17,0 10,0 5 3 WNW 10
30.06.2020 17:00:00 17,0 10,0 8 4 W 10
30.06.2020 16:00:00 18,0 10,0 8 4 SSW 10
30.06.2020 15:00:00 17,0 10,0 9 5 WSW 10
30.06.2020 14:00:00 16,0 10,0 8 4 W 10
30.06.2020 13:00:00 15,0 11,0 16 9 SW 10
30.06.2020 12:00:00 14,0 10,0 16 9 SW 10
30.06.2020 11:00:00 14,0 11,0 16 9 WSW 10
30.06.2020 10:00:00 13,0 11,0 13 7 SW 10
30.06.2020 09:00:00 13,0 11,0 15 8 WSW 10
30.06.2020 08:00:00 12,0 12,0 9 5 SW 10
30.06.2020 07:00:00 12,0 11,0 11 6 SW 10
30.06.2020 06:00:00 12,0 11,0 16 9 WSW 10
30.06.2020 05:00:00 12,0 11,0 15 8 SW 10
30.06.2020 04:00:00 12,0 11,0 21 11 WSW 10
30.06.2020 03:00:00 12,0 11,0 11 6 SW 3,4
30.06.2020 02:00:00 12,0 11,0 15 8 SW 10
30.06.2020 01:00:00 13,0 12,0 2 1 - 10
30.06.2020 00:00:00 12,0 11,0 16 9 SW 10
29.06.2020 23:00:00 12,0 11,0 16 9 SW 10
29.06.2020 22:00:00 12,0 12,0 16 9 SW 10
29.06.2020 21:00:00 13,0 11,0 21 11 SW 10
29.06.2020 20:00:00 13,0 12,0 21 11 SW 10
29.06.2020 19:00:00 12,0 12,0 18 10 SW 7
29.06.2020 18:00:00 13,0 11,0 18 10 SW 6
29.06.2020 17:00:00 13,0 11,0 16 9 SW 10
29.06.2020 16:00:00 13,0 10,0 24 13 SW 10
29.06.2020 15:00:00 13,0 11,0 34 18 WSW 4,9
29.06.2020 14:00:00 14,0 10,0 31 17 SW 10
29.06.2020 13:00:00 14,0 10,0 29 16 SW 10
29.06.2020 12:00:00 13,0 10,0 28 15 SW 10
29.06.2020 11:00:00 13,0 10,0 31 17 SW 10
29.06.2020 10:00:00 12,0 10,0 24 13 SW 10
29.06.2020 09:00:00 12,0 9,0 26 14 SW 10
29.06.2020 08:00:00 12,0 9,0 22 12 SW 10
29.06.2020 07:00:00 12,0 10,0 22 12 SW 10
29.06.2020 06:00:00 12,0 10,0 18 10 SW 10
29.06.2020 05:00:00 12,0 10,0 15 8 SSW 10
29.06.2020 04:00:00 11,0 9,0 16 9 SSW 10
29.06.2020 03:00:00 11,0 9,0 18 10 SSW 10
29.06.2020 02:00:00 11,0 9,0 13 7 SSW 10
29.06.2020 01:00:00 12,0 8,0 24 13 SW 10
29.06.2020 00:00:00 13,0 8,0 16 9 SW 10
28.06.2020 23:00:00 13,0 9,0 16 9 SSW 10
28.06.2020 22:00:00 13,0 9,0 21 11 SW 10
28.06.2020 21:00:00 14,0 8,0 29 16 SW 10
28.06.2020 20:00:00 13,0 10,0 13 7 SSW 10
28.06.2020 19:00:00 13,0 9,0 21 11 SW 10
28.06.2020 18:00:00 13,0 9,0 29 16 WSW 10
28.06.2020 17:00:00 15,0 8,0 41 22 WSW 10
28.06.2020 16:00:00 15,0 7,0 39 21 WSW 10
28.06.2020 15:00:00 15,0 9,0 31 17 SW 10
28.06.2020 14:00:00 15,0 9,0 28 15 SW 10
28.06.2020 13:00:00 14,0 9,0 37 20 SW 10
28.06.2020 12:00:00 15,0 9,0 39 21 SW 10
28.06.2020 11:00:00 14,0 9,0 34 18 SW 10
28.06.2020 10:00:00 14,0 9,0 31 17 SW 10
28.06.2020 09:00:00 13,0 9,0 29 16 SW 10
28.06.2020 08:00:00 13,0 9,0 22 12 SW 10
28.06.2020 07:00:00 12,0 9,0 16 9 SSW 10
28.06.2020 06:00:00 12,0 9,0 18 10 SSW 10
28.06.2020 05:00:00 11,0 10,0 16 9 SSW 10
28.06.2020 04:00:00 11,0 10,0 16 9 SSW 10
28.06.2020 03:00:00 11,0 10,0 15 8 SSW 10
28.06.2020 02:00:00 12,0 10,0 15 8 SSW 10
28.06.2020 01:00:00 12,0 11,0 16 9 SSW 10
28.06.2020 00:00:00 12,0 11,0 15 8 SSW 10
27.06.2020 23:00:00 13,0 11,0 16 9 SSW 10
27.06.2020 22:00:00 13,0 9,0 15 8 SW 10
27.06.2020 21:00:00 14,0 10,0 18 10 SW 10
27.06.2020 20:00:00 14,0 12,0 16 9 SSW 10
27.06.2020 19:00:00 15,0 12,0 21 11 SW 10
27.06.2020 18:00:00 16,0 14,0 16 9 SSW 10
27.06.2020 17:00:00 15,0 14,0 15 8 SSW 10
27.06.2020 16:00:00 19,0 12,0 22 12 SSW 10
27.06.2020 15:00:00 18,0 12,0 18 10 SSW 10
27.06.2020 14:00:00 19,0 12,0 21 11 SSW 10
27.06.2020 13:00:00 18,0 14,0 9 5 S 10
27.06.2020 12:00:00 18,0 14,0 16 9 S 10
27.06.2020 11:00:00 16,0 14,0 13 7 S 10
27.06.2020 10:00:00 15,0 14,0 9 5 S 2,0
27.06.2020 09:00:00 15,0 14,0 9 5 SE 10
27.06.2020 08:00:00 15,0 14,0 8 4 SSE 10
27.06.2020 07:00:00 14,0 13,0 5 3 - 10
27.06.2020 06:00:00 14,0 13,0 8 4 SSE 4,9
27.06.2020 05:00:00 15,0 13,0 9 5 S 5
27.06.2020 04:00:00 16,0 14,0 4 2 - 10
27.06.2020 03:00:00 15,0 14,0 2 1 - 10
27.06.2020 02:00:00 15,0 14,0 2 1 - 10
27.06.2020 01:00:00 15,0 14,0 4 2 - 10
27.06.2020 00:00:00 15,0 14,0 4 2 - 10
26.06.2020 23:00:00 16,0 14,0 9 5 W 10
26.06.2020 22:00:00 17,0 15,0 8 4 W 10
26.06.2020 21:00:00 18,0 15,0 9 5 NNW 10
26.06.2020 20:00:00 20,0 16,0 16 9 WNW 10
26.06.2020 19:00:00 21,0 17,0 18 10 W 10
26.06.2020 18:00:00 24,0 17,0 18 10 W 10
26.06.2020 17:00:00 26,0 15,0 13 7 S 10
26.06.2020 16:00:00 27,0 16,0 15 8 SSW 10
26.06.2020 15:00:00 26,0 17,0 13 7 SSW 10
26.06.2020 14:00:00 26,0 16,0 9 5 - 10
26.06.2020 13:00:00 24,0 17,0 11 6 E 10
26.06.2020 12:00:00 20,0 18,0 8 4 E 10
26.06.2020 11:00:00 19,0 17,0 5 3 - 10
26.06.2020 10:00:00 21,0 16,0 16 9 WSW 10
26.06.2020 09:00:00 21,0 16,0 11 6 WSW 10
26.06.2020 08:00:00 21,0 15,0 2 1 - 10
26.06.2020 07:00:00 21,0 14,0 4 2 - 10

tt = temperature
td = dewpoint
ff = wind speed
dd = wind direction
vv = visibility

Next stations